Time;durP1;ratioP1;P1;durP2;ratioP2;P2;SDS_P1;SDS_P2;PMS_P1;PMS_P2;Temp;Humidity;BMP_temperature;BMP_pressure;BME280_temperature;BME280_humidity;BME280_pressure;Samples;Min_cycle;Max_cycle;Signal;HPM_P1;HPM_P2
2023/04/20 00:01:44;;;;;;;17.85;11.93;;;;;;;8.15;100.00;101791.63;5055795;28;20029;-77
2023/04/20 00:04:14;;;;;;;21.25;12.07;;;;;;;8.14;100.00;101802.44;5054859;28;20029;-77
2023/04/20 00:06:42;;;;;;;26.88;13.48;;;;;;;7.96;100.00;101783.47;5056489;28;20108;-77
2023/04/20 00:09:16;;;;;;;24.77;11.48;;;;;;;8.02;100.00;101799.03;5054603;28;20074;-77
2023/04/20 00:11:44;;;;;;;19.88;11.45;;;;;;;7.86;100.00;101796.00;5055378;28;20036;-78
2023/04/20 00:14:12;;;;;;;22.48;11.43;;;;;;;7.63;100.00;101788.09;5055458;28;20094;-77
2023/04/20 00:16:38;;;;;;;25.58;13.00;;;;;;;7.48;100.00;101800.94;5054813;28;20037;-78
2023/04/20 00:19:09;;;;;;;25.80;12.48;;;;;;;7.27;100.00;101792.06;5021647;28;20064;-79
2023/04/20 00:21:34;;;;;;;25.83;13.05;;;;;;;6.94;100.00;101787.72;5022474;28;20118;-78
2023/04/20 00:24:05;;;;;;;23.00;12.45;;;;;;;6.78;100.00;101793.47;5054821;28;20454;-76
2023/04/20 00:26:33;;;;;;;22.48;10.95;;;;;;;6.72;100.00;101799.31;5022082;28;20039;-77
2023/04/20 00:29:03;;;;;;;27.20;12.80;;;;;;;6.68;100.00;101789.84;5021856;28;20032;-80
2023/04/20 00:31:30;;;;;;;20.38;10.27;;;;;;;6.69;100.00;101786.19;5054856;28;20044;-79
2023/04/20 00:33:58;;;;;;;31.50;13.93;;;;;;;6.83;100.00;101785.94;5021764;28;20078;-78
2023/04/20 00:36:25;;;;;;;35.33;15.23;;;;;;;6.87;100.00;101784.69;5054644;28;20114;-77
2023/04/20 00:38:51;;;;;;;32.78;14.88;;;;;;;6.95;100.00;101794.75;5038371;28;20044;-77
2023/04/20 00:41:20;;;;;;;32.95;14.40;;;;;;;7.01;100.00;101787.09;5038145;28;20037;-77
2023/04/20 00:43:54;;;;;;;30.65;14.20;;;;;;;7.09;100.00;101786.41;5038155;28;20118;-78
2023/04/20 00:46:20;;;;;;;33.65;14.10;;;;;;;7.09;100.00;101788.25;5054816;28;20476;-78
2023/04/20 00:48:47;;;;;;;24.98;14.10;;;;;;;7.18;100.00;101790.16;5021736;28;20039;-77
2023/04/20 00:51:17;;;;;;;34.67;14.50;;;;;;;7.22;100.00;101788.91;5053939;28;20033;-76
2023/04/20 00:53:48;;;;;;;31.98;14.88;;;;;;;7.26;100.00;101798.41;5038006;28;20033;-77
2023/04/20 00:56:14;;;;;;;32.03;12.23;;;;;;;7.27;100.00;101792.91;5021171;28;20083;-77
2023/04/20 00:58:41;;;;;;;28.63;12.93;;;;;;;7.22;100.00;101780.91;5037849;28;20025;-77
2023/04/20 01:01:07;;;;;;;32.75;15.63;;;;;;;7.36;100.00;101782.44;5037888;28;20501;-78
2023/04/20 01:03:33;;;;;;;26.52;14.15;;;;;;;7.31;100.00;101773.94;5037496;28;20044;-78
2023/04/20 01:06:02;;;;;;;32.60;12.57;;;;;;;7.38;100.00;101783.13;5037670;28;20051;-77
2023/04/20 01:08:27;;;;;;;28.38;11.57;;;;;;;7.43;100.00;101788.94;5038161;28;20025;-78
2023/04/20 01:10:53;;;;;;;22.35;12.68;;;;;;;7.24;100.00;101745.00;5021113;28;20041;-79
2023/04/20 01:13:22;;;;;;;23.73;12.75;;;;;;;7.54;100.00;101788.03;5053738;28;20033;-77
2023/04/20 01:15:48;;;;;;;22.17;12.15;;;;;;;7.62;100.00;101780.19;5053890;28;20028;-77
2023/04/20 01:18:17;;;;;;;27.55;13.75;;;;;;;7.75;100.00;101788.00;5054106;28;20052;-77
2023/04/20 01:20:43;;;;;;;23.15;12.75;;;;;;;7.81;100.00;101791.03;5053832;28;20061;-77
2023/04/20 01:23:13;;;;;;;28.13;13.30;;;;;;;7.75;100.00;101770.13;5053851;28;20043;-77
2023/04/20 01:25:43;;;;;;;25.48;11.80;;;;;;;7.96;100.00;101785.31;5020801;28;20044;-77
2023/04/20 01:28:08;;;;;;;26.70;12.35;;;;;;;8.07;100.00;101779.84;5054101;28;20062;-76
2023/04/20 01:30:36;;;;;;;27.17;12.20;;;;;;;8.08;100.00;101782.41;5037343;28;20083;-78
2023/04/20 01:33:02;;;;;;;22.85;12.73;;;;;;;8.09;100.00;101777.91;5053445;28;20386;-77
2023/04/20 01:35:33;;;;;;;26.55;12.27;;;;;;;8.09;100.00;101778.75;5053189;28;20029;-77
2023/04/20 01:38:01;;;;;;;20.58;11.27;;;;;;;8.10;100.00;101761.72;5036923;28;20418;-77
2023/04/20 01:40:31;;;;;;;21.35;11.60;;;;;;;8.13;100.00;101747.19;5037377;28;20041;-76
2023/04/20 01:43:00;;;;;;;25.20;11.20;;;;;;;8.30;100.00;101765.28;5053626;28;20025;-77
2023/04/20 01:45:25;;;;;;;26.48;12.30;;;;;;;8.31;100.00;101767.00;5036302;28;20037;-77
2023/04/20 01:47:54;;;;;;;18.50;9.07;;;;;;;8.35;100.00;101768.41;5053336;28;20331;-77
2023/04/20 01:50:20;;;;;;;21.52;11.23;;;;;;;8.44;100.00;101776.63;5053208;28;20028;-77
2023/04/20 01:52:45;;;;;;;20.30;11.02;;;;;;;8.47;100.00;101771.03;5036973;28;20033;-76
2023/04/20 01:55:13;;;;;;;16.85;8.45;;;;;;;8.52;100.00;101771.44;5052731;28;20033;-77
2023/04/20 01:57:43;;;;;;;24.80;10.90;;;;;;;8.57;100.00;101764.69;5053560;28;20048;-77
2023/04/20 02:00:10;;;;;;;20.40;10.70;;;;;;;8.71;100.00;101763.44;5020841;28;20037;-79
2023/04/20 02:02:38;;;;;;;47.35;9.90;;;;;;;8.85;100.00;101772.91;5035854;28;20033;-77
2023/04/20 02:05:04;;;;;;;12.85;6.43;;;;;;;8.90;100.00;101757.25;5036961;28;20037;-77
2023/04/20 02:07:30;;;;;;;15.18;7.75;;;;;;;8.82;100.00;101738.34;5036506;28;20459;-77
2023/04/20 02:10:04;;;;;;;15.40;13.65;;;;;;;8.90;100.00;101756.41;5036669;28;20151;-78
2023/04/20 02:12:29;;;;;;;9.18;6.75;;;;;;;8.86;100.00;101744.25;5019699;28;20037;-77
2023/04/20 02:15:00;;;;;;;17.13;6.07;;;;;;;8.94;100.00;101753.28;5018745;28;20395;-77
2023/04/20 02:17:28;;;;;;;17.45;8.10;;;;;;;8.88;100.00;101737.75;5053865;28;20033;-79
2023/04/20 02:19:56;;;;;;;10.85;6.90;;;;;;;8.97;100.00;101747.66;5053841;28;20029;-80
2023/04/20 02:22:25;;;;;;;8.32;5.28;;;;;;;9.01;100.00;101753.59;5037301;28;20033;-78
2023/04/20 02:24:51;;;;;;;11.30;6.50;;;;;;;9.01;100.00;101748.22;5052427;28;20467;-78
2023/04/20 02:27:19;;;;;;;12.35;7.30;;;;;;;9.07;100.00;101755.69;5052508;28;20025;-78
2023/04/20 02:29:47;;;;;;;12.10;5.40;;;;;;;9.05;100.00;101738.03;5036557;28;20364;-77
2023/04/20 02:32:20;;;;;;;10.57;5.15;;;;;;;8.96;100.00;101731.69;5052753;28;20067;-78
2023/04/20 02:34:46;;;;;;;8.82;5.95;;;;;;;9.08;100.00;101743.16;5035934;28;20030;-77
2023/04/20 02:37:12;;;;;;;9.82;4.60;;;;;;;9.07;100.00;101741.44;5036271;28;20086;-77
2023/04/20 02:39:43;;;;;;;5.82;4.28;;;;;;;9.05;100.00;101743.41;5036667;28;20094;-77
2023/04/20 02:42:14;;;;;;;9.23;6.13;;;;;;;9.05;100.00;101727.31;5052627;28;20041;-77
2023/04/20 02:44:42;;;;;;;11.95;5.85;;;;;;;8.98;100.00;101738.63;5052385;28;20043;-79
2023/04/20 02:47:08;;;;;;;6.38;4.18;;;;;;;8.95;100.00;101727.34;5035543;28;20037;-77
2023/04/20 02:49:37;;;;;;;8.68;5.90;;;;;;;8.90;100.00;101708.97;5035383;28;20029;-77
2023/04/20 02:52:04;;;;;;;10.73;5.53;;;;;;;8.90;100.00;101714.34;5019057;28;20499;-77
2023/04/20 02:54:32;;;;;;;7.35;4.18;;;;;;;8.93;100.00;101729.31;5052055;28;20036;-77
2023/04/20 02:56:58;;;;;;;11.90;5.25;;;;;;;8.92;100.00;101727.63;5053183;28;20051;-75
2023/04/20 02:59:24;;;;;;;7.07;3.22;;;;;;;8.93;100.00;101711.38;5052555;28;20029;-77
2023/04/20 03:01:51;;;;;;;9.23;5.20;;;;;;;9.02;99.85;101723.94;5019242;28;20391;-76
2023/04/20 03:04:22;;;;;;;12.65;5.68;;;;;;;9.03;99.34;101703.31;5019479;28;20036;-76
2023/04/20 03:06:57;;;;;;;9.50;4.80;;;;;;;9.00;97.90;101708.97;5051784;28;20068;-78
2023/04/20 03:09:23;;;;;;;8.63;4.63;;;;;;;8.94;97.37;101715.72;5052056;28;20025;-79
2023/04/20 03:11:54;;;;;;;7.15;2.90;;;;;;;8.87;95.00;101708.41;5051808;28;20167;-78
2023/04/20 03:14:25;;;;;;;9.82;2.80;;;;;;;8.80;93.80;101716.16;5051770;28;20119;-77
2023/04/20 03:16:53;;;;;;;4.57;2.53;;;;;;;8.70;92.31;101721.50;5035357;28;20029;-77
2023/04/20 03:19:19;;;;;;;7.63;2.40;;;;;;;8.59;91.91;101711.78;5035478;28;20112;-77
2023/04/20 03:21:45;;;;;;;3.70;2.40;;;;;;;8.63;89.11;101720.41;5052050;28;20045;-77
2023/04/20 03:24:10;;;;;;;7.32;3.03;;;;;;;8.55;87.32;101721.09;5035412;28;20517;-79
2023/04/20 03:26:36;;;;;;;2.40;1.85;;;;;;;8.42;87.42;101706.28;5053457;28;20021;-79
2023/04/20 03:29:04;;;;;;;3.20;1.98;;;;;;;8.32;87.02;101693.66;5039246;28;20467;-77
2023/04/20 03:31:32;;;;;;;6.70;2.33;;;;;;;8.20;87.57;101702.78;5023005;28;20039;-77
2023/04/20 03:33:58;;;;;;;4.55;2.40;;;;;;;8.09;89.80;101702.91;5022572;28;20029;-78
2023/04/20 03:36:24;;;;;;;5.93;2.97;;;;;;;8.01;90.75;101689.34;5055240;28;20040;-79
2023/04/20 03:38:49;;;;;;;4.22;2.45;;;;;;;7.86;90.28;101680.84;5055867;28;20025;-76
2023/04/20 03:41:15;;;;;;;7.00;1.90;;;;;;;7.86;90.52;101695.09;5056985;28;20379;-78
2023/04/20 03:43:40;;;;;;;4.47;2.50;;;;;;;7.83;89.51;101705.19;5038451;28;20383;-80
2023/04/20 03:46:06;;;;;;;3.42;1.95;;;;;;;7.62;89.39;101690.06;5055650;28;20025;-79
2023/04/20 03:48:32;;;;;;;5.25;1.73;;;;;;;7.59;89.60;101700.16;5022052;28;20033;-80
2023/04/20 03:51:01;;;;;;;3.25;1.58;;;;;;;7.62;87.94;101697.22;5055176;28;20035;-76
2023/04/20 03:53:27;;;;;;;6.07;1.92;;;;;;;7.61;87.99;101698.19;5055776;28;20025;-78
2023/04/20 03:55:55;;;;;;;8.23;2.20;;;;;;;7.52;88.16;101680.28;5054586;28;20037;-77
2023/04/20 03:58:27;;;;;;;2.22;1.85;;;;;;;7.58;87.07;101693.13;5055372;28;20024;-77
2023/04/20 04:01:16;;;;;;;5.22;2.05;;;;;;;7.55;86.46;101694.22;5056440;28;20119;-77
2023/04/20 04:03:42;;;;;;;5.07;1.65;;;;;;;7.46;86.75;101697.69;5038753;28;20102;-79
2023/04/20 04:06:10;;;;;;;3.03;1.55;;;;;;;7.39;85.52;101694.72;5038622;28;20467;-77
2023/04/20 04:08:36;;;;;;;6.57;1.75;;;;;;;7.33;85.88;101695.25;5055600;28;20029;-77
2023/04/20 04:11:04;;;;;;;2.17;1.42;;;;;;;7.26;85.05;101694.06;5038753;28;20033;-80
2023/04/20 04:13:33;;;;;;;5.43;1.60;;;;;;;7.09;85.46;101681.28;5054921;28;20091;-79
2023/04/20 04:16:01;;;;;;;2.90;1.52;;;;;;;6.97;85.62;101675.16;5021931;28;20021;-77
2023/04/20 04:18:31;;;;;;;3.35;1.67;;;;;;;6.90;86.14;101684.66;5055178;28;20052;-79
2023/04/20 04:21:01;;;;;;;1.45;0.95;;;;;;;6.76;86.59;101691.16;5023048;28;20040;-77
2023/04/20 04:23:27;;;;;;;2.55;1.48;;;;;;;6.53;87.41;101674.38;5055363;28;20083;-76
2023/04/20 04:25:56;;;;;;;5.57;1.55;;;;;;;6.70;86.36;101692.53;5054627;28;20029;-77
2023/04/20 04:28:23;;;;;;;2.08;1.42;;;;;;;6.78;85.76;101687.41;5038341;28;20021;-77
2023/04/20 04:30:50;;;;;;;4.00;2.42;;;;;;;6.57;86.02;101687.34;5055963;28;20048;-77
2023/04/20 04:33:17;;;;;;;2.90;1.83;;;;;;;6.49;86.73;101683.63;5021780;28;20475;-77
2023/04/20 04:35:44;;;;;;;3.13;1.35;;;;;;;6.51;86.39;101692.34;5054484;28;20414;-77
2023/04/20 04:38:13;;;;;;;2.28;1.63;;;;;;;6.68;84.82;101686.47;5037097;28;20041;-78
2023/04/20 04:40:40;;;;;;;8.02;1.38;;;;;;;6.62;84.60;101686.97;5005380;28;20033;-77
2023/04/20 04:43:08;;;;;;;2.25;1.67;;;;;;;6.66;83.94;101692.91;5021765;28;20033;-78
2023/04/20 04:45:40;;;;;;;4.88;1.58;;;;;;;6.66;83.34;101692.91;5038446;28;20040;-76
2023/04/20 04:48:07;;;;;;;6.68;2.75;;;;;;;6.63;83.65;101696.69;5021344;28;20033;-77
2023/04/20 04:50:33;;;;;;;2.58;1.15;;;;;;;6.46;83.13;101671.38;5037597;28;20086;-76
2023/04/20 04:52:58;;;;;;;4.00;1.70;;;;;;;6.27;83.20;101660.47;5054159;28;20029;-77
2023/04/20 04:55:24;;;;;;;3.13;1.70;;;;;;;6.27;84.54;101690.75;5037637;28;20364;-77
2023/04/20 04:57:56;;;;;;;2.53;1.55;;;;;;;6.14;84.89;101690.88;5054363;28;20523;-77
2023/04/20 05:00:22;;;;;;;1.00;0.90;;;;;;;6.27;84.15;101692.53;5037722;28;20091;-77
2023/04/20 05:02:51;;;;;;;2.58;1.83;;;;;;;6.41;83.10;101694.94;5055378;28;20029;-78
2023/04/20 05:05:27;;;;;;;2.60;1.63;;;;;;;6.55;82.10;101694.66;5055010;28;20033;-81
2023/04/20 05:07:56;;;;;;;2.05;1.48;;;;;;;6.51;81.98;101682.53;5037059;28;20056;-76
2023/04/20 05:10:24;;;;;;;4.95;2.17;;;;;;;6.54;83.37;101697.47;5053756;28;20063;-78
2023/04/20 05:12:51;;;;;;;7.53;1.38;;;;;;;6.55;82.77;101702.66;5038046;28;20076;-79
2023/04/20 05:15:17;;;;;;;1.88;1.13;;;;;;;6.49;82.42;101703.19;5037836;28;20051;-76
2023/04/20 05:17:48;;;;;;;4.90;1.73;;;;;;;6.23;84.11;101705.28;5037539;28;20033;-78
2023/04/20 05:20:14;;;;;;;1.33;1.02;;;;;;;6.05;85.14;101709.44;5054199;28;20025;-79
2023/04/20 05:22:40;;;;;;;1.23;1.10;;;;;;;5.96;86.01;101707.53;5053580;28;20386;-78
2023/04/20 05:25:06;;;;;;;2.20;0.90;;;;;;;5.80;87.09;101699.88;5053850;28;20372;-77
2023/04/20 05:27:32;;;;;;;1.50;1.08;;;;;;;5.72;88.16;101706.66;5021157;28;20091;-77
2023/04/20 05:29:58;;;;;;;5.20;2.05;;;;;;;5.79;87.98;101707.00;5037502;28;20025;-78
2023/04/20 05:32:24;;;;;;;2.72;1.60;;;;;;;5.86;88.06;101702.03;5037161;28;20091;-78
2023/04/20 05:34:49;;;;;;;3.28;1.33;;;;;;;5.89;87.95;101707.13;5036923;28;20112;-77
2023/04/20 05:37:15;;;;;;;2.03;1.20;;;;;;;5.94;87.88;101719.16;5053435;28;20119;-77
2023/04/20 05:39:41;;;;;;;2.85;1.77;;;;;;;5.96;87.29;101708.38;5053891;28;20491;-76
2023/04/20 05:42:07;;;;;;;2.83;1.55;;;;;;;6.06;85.92;101714.69;5036698;28;20029;-77
2023/04/20 05:44:35;;;;;;;2.15;1.65;;;;;;;6.14;85.20;101714.06;5053652;28;20422;-77
2023/04/20 05:47:13;;;;;;;4.82;2.22;;;;;;;6.14;83.99;101708.72;5053581;28;20021;-77
2023/04/20 05:49:45;;;;;;;5.10;2.13;;;;;;;6.15;83.76;101719.28;5020458;28;20039;-77
2023/04/20 05:52:10;;;;;;;2.80;1.90;;;;;;;6.01;84.20;101694.66;5036543;28;20391;-76
2023/04/20 05:54:36;;;;;;;3.08;1.77;;;;;;;6.05;83.79;101710.28;5036536;28;20467;-77
2023/04/20 05:57:04;;;;;;;3.08;1.25;;;;;;;5.98;84.54;101721.59;5053038;28;20060;-76
2023/04/20 05:59:30;;;;;;;2.63;1.42;;;;;;;5.76;85.54;101699.22;5053177;28;20067;-77
2023/04/20 06:01:56;;;;;;;2.75;1.83;;;;;;;5.81;85.99;101722.91;5053299;28;20032;-77
2023/04/20 06:04:21;;;;;;;9.07;1.60;;;;;;;5.69;87.29;101722.91;5053137;28;20087;-77
2023/04/20 06:06:47;;;;;;;5.88;1.88;;;;;;;5.56;87.85;101707.94;5020252;28;20033;-77
2023/04/20 06:09:13;;;;;;;2.85;1.58;;;;;;;5.70;87.94;101719.25;5052975;28;20143;-76
2023/04/20 06:11:39;;;;;;;3.58;2.00;;;;;;;5.84;87.13;101715.50;5054183;28;20379;-77
2023/04/20 06:14:04;;;;;;;2.60;1.60;;;;;;;6.19;84.75;101724.34;5036182;28;20459;-77
2023/04/20 06:16:30;;;;;;;3.40;1.50;;;;;;;6.42;83.57;101734.03;5036233;28;20041;-77
2023/04/20 06:18:55;;;;;;;3.60;1.67;;;;;;;6.79;81.37;101723.84;5036519;28;20029;-77
2023/04/20 06:21:23;;;;;;;6.43;2.30;;;;;;;7.32;77.60;101722.13;5036572;28;20029;-77
2023/04/20 06:23:49;;;;;;;1.35;1.20;;;;;;;7.43;75.43;101672.03;5052728;28;20108;-80
2023/04/20 06:26:15;;;;;;;5.28;1.83;;;;;;;7.68;74.57;101710.91;5036295;28;20075;-77
2023/04/20 06:28:40;;;;;;;2.88;1.40;;;;;;;7.55;75.31;101718.31;5053012;28;20068;-79
2023/04/20 06:31:06;;;;;;;2.72;1.63;;;;;;;7.82;74.23;101707.03;5020132;28;20029;-77
2023/04/20 06:33:32;;;;;;;1.73;1.20;;;;;;;7.77;74.50;101714.63;5035970;28;20534;-77
2023/04/20 06:35:58;;;;;;;4.15;1.90;;;;;;;7.47;74.97;101708.28;5052496;28;20021;-77
2023/04/20 06:38:26;;;;;;;3.47;2.00;;;;;;;7.59;74.69;101708.19;5035891;28;20423;-76
2023/04/20 06:40:52;;;;;;;2.88;1.23;;;;;;;7.75;74.24;101713.06;5052290;28;20033;-77
2023/04/20 06:43:18;;;;;;;3.00;1.73;;;;;;;8.33;70.66;101711.41;5052157;28;20076;-80
2023/04/20 06:45:43;;;;;;;2.10;1.67;;;;;;;8.32;70.98;101698.16;5019757;28;20090;-76
2023/04/20 06:48:09;;;;;;;3.03;2.35;;;;;;;8.38;69.18;101703.81;5036247;28;20067;-76
2023/04/20 06:50:35;;;;;;;1.88;1.42;;;;;;;8.24;70.41;101712.25;5052429;28;20379;-78
2023/04/20 06:53:02;;;;;;;2.30;1.30;;;;;;;8.17;71.08;101716.44;5035893;28;20032;-78
2023/04/20 06:55:28;;;;;;;6.15;2.40;;;;;;;8.20;71.46;101709.97;5052073;28;20040;-78
2023/04/20 06:57:53;;;;;;;9.13;2.30;;;;;;;8.50;71.35;101717.97;5053584;28;20025;-80
2023/04/20 07:00:19;;;;;;;3.50;2.20;;;;;;;8.91;67.91;101699.09;5053090;28;20029;-78
2023/04/20 07:02:47;;;;;;;6.35;1.90;;;;;;;8.82;68.37;101705.31;5019054;28;20048;-78
2023/04/20 07:05:13;;;;;;;2.58;1.10;;;;;;;8.87;68.60;101713.78;5052461;28;20490;-77
2023/04/20 07:07:40;;;;;;;3.03;1.73;;;;;;;9.35;66.65;101697.63;5019463;28;20068;-78
2023/04/20 07:10:10;;;;;;;3.15;1.75;;;;;;;11.09;61.66;101716.47;5019418;28;20033;-77
2023/04/20 07:12:36;;;;;;;4.57;1.77;;;;;;;12.66;56.41;101706.31;5019537;28;20127;-80
2023/04/20 07:15:06;;;;;;;2.55;1.70;;;;;;;13.75;50.99;101704.22;5035488;28;20122;-77
2023/04/20 07:17:32;;;;;;;5.55;2.13;;;;;;;14.21;48.79;101707.09;5019037;28;20094;-77
2023/04/20 07:20:04;;;;;;;2.65;1.70;;;;;;;14.55;47.91;101711.34;5051886;28;20071;-77
2023/04/20 07:22:31;;;;;;;3.08;2.03;;;;;;;14.89;47.05;101700.94;5053290;28;20068;-77
2023/04/20 07:25:00;;;;;;;4.90;1.42;;;;;;;15.29;46.36;101719.72;5051714;28;20394;-77
2023/04/20 07:27:26;;;;;;;3.05;1.73;;;;;;;15.46;43.70;101713.16;5003342;28;20048;-77
2023/04/20 07:29:52;;;;;;;3.03;1.65;;;;;;;15.45;45.07;101716.03;5035660;28;20056;-77
2023/04/20 07:32:17;;;;;;;4.95;1.83;;;;;;;15.77;44.00;101718.44;5035645;28;20141;-77
2023/04/20 07:34:43;;;;;;;3.05;1.80;;;;;;;15.85;43.49;101716.66;5053466;28;20025;-77
2023/04/20 07:37:11;;;;;;;4.03;2.65;;;;;;;15.98;42.21;101695.13;5052008;28;20021;-78
2023/04/20 07:39:37;;;;;;;6.22;1.98;;;;;;;16.01;43.98;101702.91;5035785;28;20108;-78
2023/04/20 07:42:03;;;;;;;3.83;1.98;;;;;;;16.48;41.10;101690.72;5052052;28;20427;-77
2023/04/20 07:44:29;;;;;;;3.10;2.05;;;;;;;16.14;41.76;101694.06;5052106;28;20034;-76
2023/04/20 07:46:56;;;;;;;4.03;2.42;;;;;;;16.39;42.45;101695.44;5035327;28;20055;-77
2023/04/20 07:49:23;;;;;;;3.95;2.17;;;;;;;16.73;41.63;101698.53;5051919;28;20032;-77
2023/04/20 07:51:49;;;;;;;3.17;2.08;;;;;;;16.71;41.06;101691.38;5051888;28;20029;-76
2023/04/20 07:54:15;;;;;;;3.33;2.20;;;;;;;16.62;40.94;101702.59;5051708;28;20067;-76
2023/04/20 07:56:40;;;;;;;5.60;2.55;;;;;;;16.74;41.67;101694.75;5035327;28;20065;-78
2023/04/20 07:59:07;;;;;;;6.78;1.83;;;;;;;16.80;40.41;101702.16;5018536;28;20025;-76
2023/04/20 08:01:33;;;;;;;7.03;2.75;;;;;;;17.18;40.51;101700.00;5035284;28;20025;-77
2023/04/20 08:03:59;;;;;;;2.50;2.00;;;;;;;17.26;40.41;101694.41;5051773;28;20029;-77
2023/04/20 08:06:26;;;;;;;4.57;2.20;;;;;;;17.43;41.13;101696.84;5034984;28;20112;-78
2023/04/20 08:08:52;;;;;;;2.97;1.88;;;;;;;18.04;39.80;101701.63;5051174;28;20416;-77
2023/04/20 08:11:17;;;;;;;4.03;2.28;;;;;;;18.20;38.03;101707.53;5035210;28;20170;-76
2023/04/20 08:13:43;;;;;;;4.05;2.00;;;;;;;18.36;36.68;101706.34;5036441;28;20471;-77
2023/04/20 08:16:09;;;;;;;3.38;1.92;;;;;;;18.02;38.59;101710.00;5038262;28;20032;-76
2023/04/20 08:18:34;;;;;;;3.65;2.30;;;;;;;18.31;38.01;101706.16;5038781;28;20036;-77
2023/04/20 08:21:00;;;;;;;3.33;2.13;;;;;;;18.59;38.25;101710.63;5054913;28;20479;-76
2023/04/20 08:23:29;;;;;;;7.00;2.45;;;;;;;18.64;36.37;101697.22;5055241;28;20029;-76
2023/04/20 08:25:55;;;;;;;5.47;2.63;;;;;;;18.73;35.85;101706.88;5054838;28;20033;-76
2023/04/20 08:28:23;;;;;;;4.53;2.50;;;;;;;19.03;36.84;101699.19;5038299;28;20040;-77
2023/04/20 08:30:50;;;;;;;5.63;2.03;;;;;;;19.35;36.68;101704.03;5022224;28;20055;-77
2023/04/20 08:33:16;;;;;;;7.60;2.55;;;;;;;19.49;36.16;101689.31;5038673;28;20052;-76
2023/04/20 08:35:42;;;;;;;7.68;2.97;;;;;;;19.61;35.51;101701.25;5055883;28;20035;-80
2023/04/20 08:38:08;;;;;;;7.00;2.47;;;;;;;19.75;35.09;101699.38;5021723;28;20115;-77
2023/04/20 08:40:35;;;;;;;2.53;2.13;;;;;;;19.82;34.53;101694.72;5055962;28;20063;-80
2023/04/20 08:43:01;;;;;;;4.63;2.70;;;;;;;19.63;34.87;101671.84;5038337;28;20048;-77
2023/04/20 08:45:29;;;;;;;5.25;2.17;;;;;;;20.07;33.70;101703.03;5038317;28;20037;-77
2023/04/20 08:47:57;;;;;;;8.23;2.88;;;;;;;20.03;32.82;101700.94;5054417;28;20132;-77
2023/04/20 08:50:23;;;;;;;4.88;2.60;;;;;;;19.92;34.33;101700.56;5021751;28;20031;-78
2023/04/20 08:52:49;;;;;;;5.07;2.65;;;;;;;20.06;32.78;101690.44;5037724;28;20352;-77
2023/04/20 08:55:16;;;;;;;3.63;2.80;;;;;;;19.83;34.03;101696.41;5037695;28;20044;-80
2023/04/20 08:57:41;;;;;;;6.03;2.30;;;;;;;19.86;34.09;101695.13;5020808;28;20127;-79
2023/04/20 09:00:09;;;;;;;4.28;2.97;;;;;;;19.81;33.86;101697.66;5054206;28;20112;-78
2023/04/20 09:02:36;;;;;;;4.88;2.63;;;;;;;19.81;35.76;101701.22;5054083;28;20387;-76
2023/04/20 09:05:05;;;;;;;5.40;2.50;;;;;;;20.59;35.17;101700.31;5054333;28;20375;-76
2023/04/20 09:07:31;;;;;;;4.35;2.95;;;;;;;20.83;32.63;101687.75;5037561;28;20112;-77
2023/04/20 09:09:57;;;;;;;4.50;2.45;;;;;;;20.84;32.63;101681.19;5053947;28;20148;-80
2023/04/20 09:12:23;;;;;;;9.02;2.53;;;;;;;21.17;30.43;101701.97;5054222;28;20463;-77
2023/04/20 09:14:49;;;;;;;6.22;2.10;;;;;;;21.16;30.53;101678.44;5054062;28;20110;-78
2023/04/20 09:17:16;;;;;;;3.83;2.50;;;;;;;20.52;30.94;101692.09;5053782;28;20468;-77
2023/04/20 09:19:44;;;;;;;3.00;1.98;;;;;;;20.46;30.75;101689.41;5053794;28;20032;-77
2023/04/20 09:22:10;;;;;;;3.58;2.45;;;;;;;20.49;31.03;101672.59;5053789;28;20029;-78
2023/04/20 09:24:37;;;;;;;3.00;2.30;;;;;;;20.54;32.71;101681.84;5037111;28;20049;-78
2023/04/20 09:27:17;;;;;;;10.13;2.30;;;;;;;21.40;32.17;101691.28;5021082;28;20467;-77
2023/04/20 09:29:44;;;;;;;3.10;2.00;;;;;;;22.07;29.51;101685.06;5005007;28;20514;-78
2023/04/20 09:32:21;;;;;;;4.05;2.70;;;;;;;21.67;30.36;101693.72;5037293;28;20542;-78
2023/04/20 09:34:47;;;;;;;3.42;1.95;;;;;;;21.87;30.06;101685.31;5036801;28;20032;-76
2023/04/20 09:37:18;;;;;;;3.85;2.35;;;;;;;21.86;30.42;101681.75;5037260;28;20029;-78
2023/04/20 09:39:44;;;;;;;3.67;1.80;;;;;;;21.78;28.75;101692.13;5037496;28;20029;-78
2023/04/20 09:42:14;;;;;;;2.78;1.67;;;;;;;21.76;29.68;101697.84;5053702;28;20032;-78
2023/04/20 09:44:40;;;;;;;5.68;3.80;;;;;;;22.54;30.55;101702.56;5053472;28;20104;-77
2023/04/20 09:47:06;;;;;;;4.13;3.72;;;;;;;23.54;28.65;101692.75;5020387;28;20029;-76
2023/04/20 09:49:32;;;;;;;4.00;2.83;;;;;;;23.47;27.25;101705.75;5036630;28;20065;-77
2023/04/20 09:52:01;;;;;;;5.10;2.63;;;;;;;23.06;27.06;101698.47;5020615;28;20102;-76
2023/04/20 09:54:27;;;;;;;3.60;2.33;;;;;;;23.29;26.46;101703.13;5020201;28;20426;-76
2023/04/20 09:56:53;;;;;;;6.22;2.55;;;;;;;23.38;27.02;101701.72;5036727;28;20078;-76
2023/04/20 09:59:20;;;;;;;3.97;2.50;;;;;;;23.85;25.82;101691.56;5036580;28;20473;-76
2023/04/20 10:01:45;;;;;;;5.15;3.78;;;;;;;23.12;26.86;101681.88;5036696;28;20031;-76
2023/04/20 10:04:13;;;;;;;3.38;2.50;;;;;;;23.10;27.56;101681.31;5036084;28;20112;-78
2023/04/20 10:06:39;;;;;;;4.57;2.70;;;;;;;22.82;25.84;101677.28;5051832;28;20147;-76
2023/04/20 10:09:06;;;;;;;6.05;2.42;;;;;;;22.66;27.57;101690.84;5050689;28;20024;-76
2023/04/20 10:11:37;;;;;;;5.50;2.50;;;;;;;22.79;28.01;101694.22;5035888;28;20025;-76
2023/04/20 10:14:22;;;;;;;3.70;2.65;;;;;;;22.87;27.51;101692.22;5053010;28;20501;-76
2023/04/20 10:17:06;;;;;;;3.42;1.85;;;;;;;22.79;28.02;101693.38;5019916;28;20391;-77
2023/04/20 10:19:43;;;;;;;8.73;2.53;;;;;;;23.29;26.64;101695.75;5053027;28;20035;-76
2023/04/20 10:22:10;;;;;;;6.70;2.70;;;;;;;23.89;26.59;101697.41;5053009;28;20068;-75
2023/04/20 10:24:37;;;;;;;4.68;2.42;;;;;;;23.95;26.30;101690.09;5052838;28;20125;-78
2023/04/20 10:27:03;;;;;;;5.93;2.60;;;;;;;23.53;26.14;101679.28;5036240;28;20033;-75
2023/04/20 10:29:30;;;;;;;3.75;1.88;;;;;;;23.86;25.18;101692.38;5019810;28;20493;-76
2023/04/20 10:31:56;;;;;;;3.88;2.38;;;;;;;23.84;25.95;101681.66;5052757;28;20043;-76
2023/04/20 10:34:35;;;;;;;4.45;2.42;;;;;;;23.92;25.53;101692.28;5052551;28;20025;-77
2023/04/20 10:37:10;;;;;;;4.68;3.03;;;;;;;23.92;25.25;101677.69;5051676;28;20041;-77
2023/04/20 10:39:43;;;;;;;5.72;2.60;;;;;;;24.27;25.44;101682.25;5019468;28;20387;-76
2023/04/20 10:42:09;;;;;;;2.83;2.20;;;;;;;24.44;24.18;101682.28;5052729;28;20128;-76
2023/04/20 10:44:35;;;;;;;3.10;2.40;;;;;;;24.47;25.08;101679.06;5053417;28;20115;-76
2023/04/20 10:47:01;;;;;;;2.53;1.42;;;;;;;24.54;24.27;101655.84;5052539;28;20087;-77
2023/04/20 10:49:28;;;;;;;3.00;1.98;;;;;;;24.24;24.66;101666.22;5035944;28;20033;-77
2023/04/20 10:51:54;;;;;;;3.65;2.50;;;;;;;24.29;22.47;101675.44;5035690;28;20029;-75
2023/04/20 10:54:20;;;;;;;5.70;2.42;;;;;;;24.12;24.85;101664.38;5003082;28;20041;-76
2023/04/20 10:56:48;;;;;;;4.03;2.33;;;;;;;24.49;24.38;101676.91;5052167;28;20045;-76
2023/04/20 10:59:15;;;;;;;2.75;2.20;;;;;;;24.61;23.51;101661.22;5052160;28;20041;-77
2023/04/20 11:01:42;;;;;;;3.42;2.15;;;;;;;25.00;23.14;101664.03;5035699;28;20035;-76
2023/04/20 11:04:09;;;;;;;6.93;2.40;;;;;;;25.53;23.82;101657.16;5035454;28;20032;-77
2023/04/20 11:06:38;;;;;;;4.60;2.20;;;;;;;25.83;23.75;101659.50;5052303;28;20175;-76
2023/04/20 11:09:15;;;;;;;4.25;2.33;;;;;;;26.30;23.65;101660.88;5052121;28;20463;-76
2023/04/20 11:11:41;;;;;;;3.67;2.00;;;;;;;26.02;22.39;101659.22;5035763;28;20459;-77
2023/04/20 11:14:08;;;;;;;2.95;1.60;;;;;;;25.93;23.33;101639.53;5052144;28;20035;-77
2023/04/20 11:16:35;;;;;;;6.22;2.45;;;;;;;25.64;22.54;101633.34;5052360;28;20040;-79
2023/04/20 11:19:02;;;;;;;4.63;1.98;;;;;;;25.87;23.39;101635.06;5053340;28;20036;-80
2023/04/20 11:21:54;;;;;;;4.03;2.08;;;;;;;25.23;23.38;101636.38;5035874;28;20033;-79
2023/04/20 11:24:20;;;;;;;;;;;;;;;25.57;24.03;101635.47;5050132;28;20045;-79
2023/04/20 11:26:49;;;;;;;4.88;2.10;;;;;;;25.72;24.07;101632.06;5085652;28;19909;-80